createdAt,value
2018-11-27T00:00:43.402Z,14.83
2018-11-27T00:03:11.269Z,13.97
2018-11-27T00:05:39.946Z,15.63
2018-11-27T00:08:08.165Z,14.93
2018-11-27T00:10:38.958Z,15.47
2018-11-27T00:13:06.829Z,15.40
2018-11-27T00:15:34.747Z,14.00
2018-11-27T00:18:02.669Z,16.67
2018-11-27T00:20:30.568Z,13.93
2018-11-27T00:22:58.470Z,14.37
2018-11-27T00:25:26.325Z,13.50
2018-11-27T00:27:54.187Z,13.93
2018-11-27T00:30:22.507Z,14.20
2018-11-27T00:32:50.404Z,14.97
2018-11-27T00:35:19.435Z,17.27
2018-11-27T00:37:47.335Z,12.53
2018-11-27T00:40:19.976Z,16.27
2018-11-27T00:42:47.825Z,15.07
2018-11-27T00:45:16.574Z,17.20
2018-11-27T00:47:45.081Z,17.70
2018-11-27T00:50:28.361Z,16.10
2018-11-27T00:52:56.274Z,15.03
2018-11-27T00:55:24.202Z,17.30
2018-11-27T00:57:53.320Z,15.57
2018-11-27T01:00:21.767Z,15.47
2018-11-27T01:02:49.714Z,17.63
2018-11-27T01:05:18.709Z,18.93
2018-11-27T01:07:46.628Z,17.23
2018-11-27T01:10:17.139Z,14.87
2018-11-27T01:12:45.119Z,18.20
2018-11-27T01:15:13.396Z,16.63
2018-11-27T01:17:41.926Z,16.13
2018-11-27T01:20:11.809Z,17.40
2018-11-27T01:22:39.755Z,16.77
2018-11-27T01:25:07.725Z,16.27
2018-11-27T01:27:35.590Z,16.77
2018-11-27T01:30:03.581Z,15.50
2018-11-27T01:32:31.440Z,17.97
2018-11-27T01:34:59.318Z,15.20
2018-11-27T01:37:27.253Z,15.30
2018-11-27T01:39:55.102Z,13.33
2018-11-27T01:42:22.987Z,14.63
2018-11-27T01:44:51.098Z,14.63
2018-11-27T01:47:19.189Z,16.60
2018-11-27T01:49:47.042Z,15.17
2018-11-27T01:52:14.903Z,14.93
2018-11-27T01:54:42.773Z,16.30
2018-11-27T01:57:10.649Z,16.13
2018-11-27T01:59:39.009Z,12.37
2018-11-27T02:02:06.928Z,14.97
2018-11-27T02:04:34.936Z,13.90
2018-11-27T02:07:02.813Z,13.53
2018-11-27T02:09:30.675Z,12.87
2018-11-27T02:11:58.594Z,11.23
2018-11-27T02:14:26.486Z,13.20
2018-11-27T02:16:54.859Z,11.10
2018-11-27T02:19:22.724Z,14.63
2018-11-27T02:21:50.585Z,15.17
2018-11-27T02:24:18.452Z,12.00
2018-11-27T02:26:46.299Z,12.47
2018-11-27T02:29:14.225Z,13.00
2018-11-27T02:31:42.166Z,13.07
2018-11-27T02:34:10.114Z,10.60
2018-11-27T02:36:37.992Z,14.13
2018-11-27T02:39:06.475Z,16.20
2018-11-27T02:41:34.354Z,10.80
2018-11-27T02:44:02.206Z,10.00
2018-11-27T02:46:30.191Z,9.40
2018-11-27T02:48:58.106Z,10.03
2018-11-27T02:51:25.989Z,9.63
2018-11-27T02:53:53.860Z,9.03
2018-11-27T02:56:21.697Z,8.33
2018-11-27T02:58:49.536Z,9.77
2018-11-27T03:01:17.427Z,10.03
2018-11-27T03:03:45.300Z,8.90
2018-11-27T03:06:13.393Z,7.90
2018-11-27T03:08:41.282Z,8.13
2018-11-27T03:11:09.164Z,10.47
2018-11-27T03:13:37.012Z,8.37
2018-11-27T03:16:04.986Z,8.33
2018-11-27T03:18:33.186Z,10.00
2018-11-27T03:21:01.715Z,8.70
2018-11-27T03:23:29.603Z,8.87
2018-11-27T03:25:57.765Z,8.40
2018-11-27T03:28:25.639Z,9.13
2018-11-27T03:30:53.642Z,7.80
2018-11-27T03:33:21.667Z,7.20
2018-11-27T03:35:49.542Z,7.10
2018-11-27T03:38:17.484Z,6.87
2018-11-27T03:40:45.372Z,8.83
2018-11-27T03:43:13.227Z,7.37
2018-11-27T03:45:41.082Z,9.43
2018-11-27T03:48:08.998Z,8.87
2018-11-27T03:50:36.851Z,8.00
2018-11-27T03:53:05.217Z,7.90
2018-11-27T03:55:33.075Z,7.87
2018-11-27T03:58:00.950Z,9.57
2018-11-27T04:00:29.955Z,8.53
2018-11-27T04:03:02.981Z,6.97
2018-11-27T04:05:30.826Z,7.00
2018-11-27T04:07:58.682Z,6.93
2018-11-27T04:10:26.562Z,6.93
2018-11-27T04:12:54.465Z,9.20
2018-11-27T04:15:22.345Z,7.27
2018-11-27T04:17:50.218Z,7.20
2018-11-27T04:20:18.223Z,8.40
2018-11-27T04:22:46.187Z,6.63
2018-11-27T04:25:14.832Z,8.50
2018-11-27T04:27:42.801Z,6.53
2018-11-27T04:30:11.650Z,7.37
2018-11-27T04:32:39.594Z,10.60
2018-11-27T04:35:07.925Z,8.27
2018-11-27T04:37:35.805Z,10.20
2018-11-27T04:40:04.191Z,8.67
2018-11-27T04:42:32.079Z,7.87
2018-11-27T04:44:59.933Z,8.47
2018-11-27T04:47:27.791Z,6.60
2018-11-27T04:49:55.664Z,6.27
2018-11-27T04:52:23.498Z,4.87
2018-11-27T04:54:51.406Z,6.47
2018-11-27T04:57:19.319Z,5.63
2018-11-27T04:59:47.239Z,5.60
2018-11-27T05:02:15.117Z,5.07
2018-11-27T05:04:43.176Z,6.13
2018-11-27T05:07:11.036Z,5.23
2018-11-27T05:09:38.962Z,5.33
2018-11-27T05:12:06.823Z,4.50
2018-11-27T05:14:34.717Z,6.90
2018-11-27T05:17:02.567Z,4.37
2018-11-27T05:19:30.411Z,4.90
2018-11-27T05:21:58.281Z,4.37
2018-11-27T05:24:26.128Z,5.03
2018-11-27T05:26:53.987Z,6.57
2018-11-27T05:29:21.873Z,6.13
2018-11-27T05:31:49.746Z,6.93
2018-11-27T05:34:17.591Z,6.37
2018-11-27T05:36:45.470Z,5.87
2018-11-27T05:39:13.345Z,6.90
2018-11-27T05:41:41.334Z,7.13
2018-11-27T05:44:09.249Z,5.37
2018-11-27T05:46:37.202Z,6.50
2018-11-27T05:49:05.385Z,6.77
2018-11-27T05:51:33.262Z,6.60
2018-11-27T05:54:01.117Z,7.27
2018-11-27T05:56:29.000Z,5.80
2018-11-27T05:58:56.864Z,5.93
2018-11-27T06:01:24.755Z,7.70
2018-11-27T06:03:52.593Z,8.07
2018-11-27T06:06:20.479Z,6.80
2018-11-27T06:08:48.309Z,8.90
2018-11-27T06:11:16.157Z,8.20
2018-11-27T06:13:44.041Z,8.40
2018-11-27T06:16:11.905Z,8.17
2018-11-27T06:18:39.985Z,8.17
2018-11-27T06:21:07.892Z,6.93
2018-11-27T06:23:35.718Z,6.30
2018-11-27T06:26:03.606Z,8.33
2018-11-27T06:28:31.432Z,9.03
2018-11-27T06:30:59.302Z,6.13
2018-11-27T06:33:27.189Z,5.47
2018-11-27T06:35:55.031Z,8.27
2018-11-27T06:38:22.885Z,8.50
2018-11-27T06:40:50.877Z,8.37
2018-11-27T06:43:18.719Z,7.80
2018-11-27T06:45:46.574Z,8.67
2018-11-27T06:48:14.444Z,8.27
2018-11-27T06:50:42.289Z,8.07
2018-11-27T06:53:10.180Z,10.00
2018-11-27T06:55:38.196Z,9.40
2018-11-27T06:58:07.222Z,7.93
2018-11-27T07:00:35.191Z,8.70
2018-11-27T07:03:03.073Z,7.70
2018-11-27T07:05:30.950Z,9.17
2018-11-27T07:07:58.799Z,7.80
2018-11-27T07:10:27.615Z,9.80
2018-11-27T07:12:56.284Z,7.23
2018-11-27T07:15:24.362Z,8.20
2018-11-27T07:17:52.228Z,8.73
2018-11-27T07:20:20.109Z,8.50
2018-11-27T07:22:47.977Z,13.97
2018-11-27T07:25:16.397Z,7.20
2018-11-27T07:27:45.793Z,10.77
2018-11-27T07:30:14.459Z,7.60
2018-11-27T07:32:42.442Z,10.33
2018-11-27T07:35:11.066Z,11.90
2018-11-27T07:37:39.023Z,13.60
2018-11-27T07:40:10.734Z,7.53
2018-11-27T07:42:39.476Z,8.40
2018-11-27T07:45:09.252Z,8.73
2018-11-27T07:47:37.188Z,8.50
2018-11-27T07:50:05.132Z,7.40
2018-11-27T07:52:32.991Z,9.77
2018-11-27T07:55:00.833Z,7.90
2018-11-27T07:57:28.683Z,11.07
2018-11-27T07:59:56.646Z,6.83
2018-11-27T08:02:24.490Z,8.63
2018-11-27T08:04:52.329Z,8.50
2018-11-27T08:07:21.280Z,9.67
2018-11-27T08:09:48.693Z,10.63
2018-11-27T08:12:16.537Z,10.90
2018-11-27T08:14:44.402Z,6.87
2018-11-27T08:17:12.249Z,6.53
2018-11-27T08:19:40.206Z,12.93
2018-11-27T08:22:08.140Z,10.30
2018-11-27T08:24:36.013Z,8.13
2018-11-27T08:27:03.908Z,9.73
2018-11-27T08:29:31.785Z,8.93
2018-11-27T08:31:59.654Z,6.13
2018-11-27T08:34:27.509Z,12.07
2018-11-27T08:36:55.367Z,10.10
2018-11-27T08:39:23.229Z,9.23
2018-11-27T08:41:51.122Z,13.43
2018-11-27T08:44:18.985Z,10.77
2018-11-27T08:46:46.840Z,8.13
2018-11-27T08:49:14.708Z,10.27
2018-11-27T08:51:42.553Z,10.43
2018-11-27T08:54:11.353Z,8.17
2018-11-27T08:56:39.741Z,11.13
2018-11-27T08:59:07.622Z,8.97
2018-11-27T09:01:35.485Z,9.97
2018-11-27T09:04:03.338Z,9.50
2018-11-27T09:06:31.202Z,13.20
2018-11-27T09:08:59.070Z,10.67
2018-11-27T09:11:27.227Z,12.00
2018-11-27T09:13:55.159Z,12.83
2018-11-27T09:16:23.013Z,15.03
2018-11-27T09:18:51.274Z,12.20
2018-11-27T09:21:19.127Z,10.43
2018-11-27T09:23:46.973Z,11.50
2018-11-27T09:26:14.849Z,10.40
2018-11-27T09:28:42.699Z,14.80
2018-11-27T09:31:10.578Z,15.83
2018-11-27T09:33:38.829Z,9.47
2018-11-27T09:36:06.697Z,13.40
2018-11-27T09:38:34.547Z,10.13
2018-11-27T09:41:02.478Z,12.00
2018-11-27T09:43:30.361Z,11.80
2018-11-27T09:45:58.287Z,12.83
2018-11-27T09:48:26.137Z,12.10
2018-11-27T09:50:53.999Z,9.17
2018-11-27T09:53:21.854Z,10.27
2018-11-27T09:55:49.700Z,9.63
2018-11-27T09:58:17.537Z,12.80
2018-11-27T10:00:45.402Z,12.03
2018-11-27T10:03:14.088Z,13.93
2018-11-27T10:05:41.971Z,13.93
2018-11-27T10:08:09.940Z,11.63
2018-11-27T10:10:38.503Z,9.77
2018-11-27T10:13:06.983Z,9.63
2018-11-27T10:16:38.144Z,13.90
2018-11-27T10:19:06.048Z,10.37
2018-11-27T10:21:33.936Z,10.63
2018-11-27T10:24:01.785Z,8.17
2018-11-27T10:26:29.641Z,13.70
2018-11-27T10:28:57.497Z,9.20
2018-11-27T10:31:25.342Z,10.17
2018-11-27T10:33:53.241Z,8.80
2018-11-27T10:36:21.116Z,8.80
2018-11-27T10:38:48.968Z,15.10
2018-11-27T10:41:16.827Z,9.13
2018-11-27T10:43:44.800Z,11.23
2018-11-27T10:46:12.641Z,10.00
2018-11-27T10:48:40.549Z,12.83
2018-11-27T10:51:08.465Z,12.40
2018-11-27T10:53:36.329Z,11.53
2018-11-27T10:56:04.193Z,10.30
2018-11-27T10:58:32.044Z,12.90
2018-11-27T11:01:05.124Z,10.17
2018-11-27T11:03:35.792Z,10.63
2018-11-27T11:06:04.593Z,10.67
2018-11-27T11:08:32.439Z,9.97
2018-11-27T11:11:00.341Z,11.80
2018-11-27T11:13:28.344Z,10.63
2018-11-27T11:15:56.325Z,12.00
2018-11-27T11:18:24.283Z,11.40
2018-11-27T11:20:52.295Z,10.13
2018-11-27T11:23:20.153Z,13.97
2018-11-27T11:25:48.021Z,14.33
2018-11-27T11:28:16.767Z,11.97
2018-11-27T11:30:44.625Z,10.63
2018-11-27T11:33:12.473Z,10.97
2018-11-27T11:35:40.429Z,10.47
2018-11-27T11:38:08.367Z,12.93
2018-11-27T11:40:36.262Z,12.87
2018-11-27T11:43:04.173Z,13.37
2018-11-27T11:45:32.174Z,12.50
2018-11-27T11:48:00.040Z,12.73
2018-11-27T11:50:28.694Z,12.57
2018-11-27T11:53:04.245Z,12.33
2018-11-27T11:55:32.086Z,12.53
2018-11-27T11:57:59.921Z,14.23
2018-11-27T12:00:30.658Z,12.67
2018-11-27T12:02:58.544Z,11.50
2018-11-27T12:05:26.400Z,14.20
2018-11-27T12:07:54.261Z,12.57
2018-11-27T12:10:22.090Z,13.03
2018-11-27T12:12:50.132Z,15.97
2018-11-27T12:15:18.602Z,10.97
2018-11-27T12:17:46.860Z,11.23
2018-11-27T12:20:15.273Z,16.53
2018-11-27T12:22:43.853Z,20.23
2018-11-27T12:25:12.685Z,13.73
2018-11-27T12:27:40.530Z,11.73
2018-11-27T12:30:11.028Z,13.23
2018-11-27T12:32:39.026Z,11.43
2018-11-27T12:35:07.310Z,13.83
2018-11-27T12:37:35.210Z,16.47
2018-11-27T12:40:03.073Z,12.80
2018-11-27T12:42:30.950Z,15.03
2018-11-27T12:44:58.790Z,10.90
2018-11-27T12:47:26.668Z,15.13
2018-11-27T12:49:54.558Z,14.33
2018-11-27T12:52:22.398Z,14.20
2018-11-27T12:54:50.250Z,16.17
2018-11-27T12:57:18.162Z,11.73
2018-11-27T12:59:46.056Z,13.17
2018-11-27T13:02:13.912Z,11.20
2018-11-27T13:04:41.773Z,12.07
2018-11-27T13:07:09.644Z,13.07
2018-11-27T13:09:37.533Z,11.63
2018-11-27T13:12:05.469Z,12.50
2018-11-27T13:14:33.334Z,15.17
2018-11-27T13:17:01.198Z,14.07
2018-11-27T13:19:29.064Z,14.17
2018-11-27T13:21:56.944Z,11.80
2018-11-27T13:24:24.794Z,14.10
2018-11-27T13:26:52.661Z,12.60
2018-11-27T13:29:20.562Z,12.60
2018-11-27T13:31:48.471Z,14.90
2018-11-27T13:34:16.453Z,11.97
2018-11-27T13:36:44.345Z,12.53
2018-11-27T13:39:17.486Z,11.80
2018-11-27T13:41:45.393Z,14.73
2018-11-27T13:44:13.316Z,13.00
2018-11-27T13:46:41.192Z,10.53
2018-11-27T13:49:09.370Z,12.83
2018-11-27T13:51:37.248Z,11.40
2018-11-27T13:54:05.205Z,15.43
2018-11-27T13:56:34.273Z,13.40
2018-11-27T13:59:01.046Z,15.77
2018-11-27T14:01:28.971Z,10.73
2018-11-27T14:03:56.980Z,11.37
2018-11-27T14:06:24.830Z,13.17
2018-11-27T14:08:52.713Z,12.10
2018-11-27T14:11:20.564Z,10.07
2018-11-27T14:13:48.448Z,12.77
2018-11-27T14:16:16.304Z,13.23
2018-11-27T14:18:44.162Z,15.03
2018-11-27T14:21:12.135Z,14.37
2018-11-27T14:23:40.177Z,11.30
2018-11-27T14:26:08.095Z,13.30
2018-11-27T14:28:35.947Z,11.00
2018-11-27T14:31:03.827Z,14.03
2018-11-27T14:33:31.735Z,10.90
2018-11-27T14:35:59.636Z,12.10
2018-11-27T14:38:27.517Z,18.43
2018-11-27T14:40:55.371Z,12.37
2018-11-27T14:43:23.230Z,13.53
2018-11-27T14:45:51.101Z,13.30
2018-11-27T14:48:19.213Z,10.03
2018-11-27T14:50:46.889Z,11.57
2018-11-27T14:53:14.893Z,15.43
2018-11-27T14:55:42.753Z,14.90
2018-11-27T14:58:14.982Z,12.73
2018-11-27T15:00:38.698Z,18.00
2018-11-27T15:03:06.562Z,20.30
2018-11-27T15:05:35.322Z,16.73
2018-11-27T15:08:03.720Z,14.37
2018-11-27T15:10:31.585Z,12.70
2018-11-27T15:12:59.424Z,12.37
2018-11-27T15:15:27.336Z,13.13
2018-11-27T15:17:55.198Z,15.97
2018-11-27T15:20:23.600Z,13.90
2018-11-27T15:22:51.532Z,13.07
2018-11-27T15:25:19.805Z,13.83
2018-11-27T15:27:48.014Z,16.43
2018-11-27T15:30:17.666Z,20.70
2018-11-27T15:32:45.582Z,20.63
2018-11-27T15:35:13.736Z,12.67
2018-11-27T15:37:41.774Z,17.00
2018-11-27T15:40:15.268Z,13.77
2018-11-27T15:42:43.174Z,14.10
2018-11-27T15:45:12.898Z,16.33
2018-11-27T15:47:40.753Z,20.87
2018-11-27T15:50:09.490Z,20.73
2018-11-27T15:52:37.347Z,17.10
2018-11-27T15:55:08.055Z,12.67
2018-11-27T15:57:36.115Z,14.57
2018-11-27T16:00:04.126Z,19.90
2018-11-27T16:02:31.979Z,14.43
2018-11-27T16:04:59.850Z,12.63
2018-11-27T16:07:27.716Z,15.07
2018-11-27T16:09:55.683Z,16.60
2018-11-27T16:12:23.534Z,15.70
2018-11-27T16:14:51.378Z,17.90
2018-11-27T16:17:19.326Z,15.07
2018-11-27T16:19:47.197Z,20.50
2018-11-27T16:22:15.218Z,21.00
2018-11-27T16:24:43.156Z,16.07
2018-11-27T16:27:11.267Z,23.37
2018-11-27T16:29:39.862Z,22.77
2018-11-27T16:32:07.785Z,15.47
2018-11-27T16:34:35.698Z,15.83
2018-11-27T16:37:03.759Z,19.23
2018-11-27T16:39:31.607Z,18.73
2018-11-27T16:41:59.552Z,15.50
2018-11-27T16:44:27.479Z,19.20
2018-11-27T16:46:55.377Z,13.90
2018-11-27T16:49:23.253Z,13.23
2018-11-27T16:51:51.151Z,19.53
2018-11-27T16:54:19.022Z,16.97
2018-11-27T16:56:46.941Z,17.20
2018-11-27T16:59:14.917Z,15.50
2018-11-27T17:01:42.833Z,15.73
2018-11-27T17:04:10.684Z,16.87
2018-11-27T17:06:38.593Z,18.03
2018-11-27T17:09:09.368Z,16.53
2018-11-27T17:11:37.378Z,16.57
2018-11-27T17:14:05.397Z,18.60
2018-11-27T17:16:33.435Z,19.77
2018-11-27T17:19:01.718Z,18.30
2018-11-27T17:21:29.727Z,21.73
2018-11-27T17:23:57.770Z,20.17
2018-11-27T17:26:25.682Z,16.80
2018-11-27T17:28:53.536Z,18.23
2018-11-27T17:31:21.458Z,17.57
2018-11-27T17:33:53.537Z,24.23
2018-11-27T17:36:21.552Z,19.37
2018-11-27T17:38:49.675Z,17.70
2018-11-27T17:41:17.674Z,23.07
2018-11-27T17:43:45.613Z,19.40
2018-11-27T17:46:14.756Z,18.53
2018-11-27T17:48:42.813Z,22.27
2018-11-27T17:51:11.339Z,22.73
2018-11-27T17:53:39.683Z,18.90
2018-11-27T17:56:07.687Z,23.67
2018-11-27T17:58:35.768Z,20.23
2018-11-27T18:01:03.900Z,20.77
2018-11-27T18:03:32.062Z,19.67
2018-11-27T18:06:00.111Z,23.70
2018-11-27T18:08:28.354Z,21.77
2018-11-27T18:10:56.406Z,18.77
2018-11-27T18:13:24.448Z,22.53
2018-11-27T18:15:52.448Z,21.60
2018-11-27T18:18:21.153Z,20.37
2018-11-27T18:20:49.249Z,20.67
2018-11-27T18:23:17.420Z,21.53
2018-11-27T18:25:45.494Z,20.77
2018-11-27T18:28:13.581Z,20.77
2018-11-27T18:30:41.743Z,26.17
2018-11-27T18:33:09.811Z,21.20
2018-11-27T18:35:38.044Z,23.07
2018-11-27T18:38:06.333Z,26.10
2018-11-27T18:40:34.395Z,24.90
2018-11-27T18:43:02.447Z,22.27
2018-11-27T18:45:31.413Z,24.80
2018-11-27T18:47:59.608Z,19.77
2018-11-27T18:50:28.655Z,23.30
2018-11-27T18:52:56.733Z,24.27
2018-11-27T18:55:25.008Z,26.73
2018-11-27T18:57:53.808Z,22.83
2018-11-27T19:00:24.896Z,25.97
2018-11-27T19:02:53.021Z,25.67
2018-11-27T19:05:21.097Z,21.90
2018-11-27T19:07:49.188Z,24.37
2018-11-27T19:10:18.217Z,24.37
2018-11-27T19:12:46.572Z,22.40
2018-11-27T19:15:16.216Z,26.73
2018-11-27T19:17:44.952Z,26.77
2018-11-27T19:20:13.190Z,22.30
2018-11-27T19:22:41.313Z,22.13
2018-11-27T19:25:10.293Z,22.57
2018-11-27T19:27:38.428Z,19.93
2018-11-27T19:30:16.023Z,21.20
2018-11-27T19:32:39.681Z,23.33
2018-11-27T19:35:08.818Z,25.60
2018-11-27T19:37:37.047Z,22.50
2018-11-27T19:40:06.195Z,18.17
2018-11-27T19:42:34.260Z,22.30
2018-11-27T19:45:02.408Z,22.77
2018-11-27T19:47:30.729Z,22.73
2018-11-27T19:49:58.947Z,23.80
2018-11-27T19:52:27.509Z,22.17
2018-11-27T19:54:55.799Z,21.97
2018-11-27T19:57:24.122Z,25.90
2018-11-27T19:59:52.317Z,21.93
2018-11-27T20:02:20.465Z,24.37
2018-11-27T20:04:48.645Z,20.83
2018-11-27T20:07:16.840Z,26.63
2018-11-27T20:09:45.086Z,25.43
2018-11-27T20:12:13.495Z,22.27
2018-11-27T20:14:41.726Z,22.63
2018-11-27T20:17:10.116Z,23.20
2018-11-27T20:19:38.385Z,21.00
2018-11-27T20:22:06.711Z,20.30
2018-11-27T20:24:34.925Z,23.10
2018-11-27T20:27:03.595Z,21.00
2018-11-27T20:29:31.821Z,20.50
2018-11-27T20:32:00.042Z,20.80
2018-11-27T20:34:28.261Z,19.97
2018-11-27T20:36:56.503Z,18.77
2018-11-27T20:39:24.775Z,23.37
2018-11-27T20:41:53.285Z,18.03
2018-11-27T20:44:21.473Z,22.97
2018-11-27T20:46:49.728Z,19.13
2018-11-27T20:49:17.899Z,20.50
2018-11-27T20:51:46.152Z,21.10
2018-11-27T20:54:14.372Z,25.50
2018-11-27T20:56:42.597Z,22.53
2018-11-27T20:59:10.765Z,20.07
2018-11-27T21:01:38.943Z,19.53
2018-11-27T21:04:07.066Z,22.37
2018-11-27T21:06:35.171Z,21.20
2018-11-27T21:09:04.264Z,21.57
2018-11-27T21:11:32.617Z,19.20
2018-11-27T21:14:00.686Z,24.07
2018-11-27T21:16:28.764Z,24.83
2018-11-27T21:18:56.963Z,18.77
2018-11-27T21:21:25.194Z,19.87
2018-11-27T21:23:53.240Z,19.53
2018-11-27T21:26:21.715Z,19.77
2018-11-27T21:28:49.921Z,23.67
2018-11-27T21:31:24.000Z,18.17
2018-11-27T21:33:47.648Z,22.90
2018-11-27T21:36:15.544Z,23.17
2018-11-27T21:38:43.405Z,22.47
2018-11-27T21:41:11.271Z,22.00
2018-11-27T21:43:40.053Z,22.50
2018-11-27T21:46:07.981Z,21.07
2018-11-27T21:48:36.101Z,21.97
2018-11-27T21:51:04.007Z,23.60
2018-11-27T21:53:31.950Z,21.87
2018-11-27T21:55:59.878Z,20.00
2018-11-27T21:58:27.755Z,19.70
2018-11-27T22:00:55.645Z,20.47
2018-11-27T22:03:23.549Z,21.97
2018-11-27T22:05:51.461Z,22.40
2018-11-27T22:08:19.523Z,25.73
2018-11-27T22:10:47.385Z,20.40
2018-11-27T22:13:15.264Z,27.10
2018-11-27T22:15:43.934Z,25.90
2018-11-27T22:18:12.493Z,23.77
2018-11-27T22:20:40.569Z,23.33
2018-11-27T22:23:08.812Z,24.77
2018-11-27T22:25:36.678Z,28.27
2018-11-27T22:28:04.881Z,24.10
2018-11-27T22:30:32.781Z,29.83
2018-11-27T22:33:00.637Z,27.27
2018-11-27T22:35:29.203Z,24.60
2018-11-27T22:37:57.078Z,23.87
2018-11-27T22:40:25.964Z,29.27
2018-11-27T22:42:55.110Z,25.50
2018-11-27T22:45:24.936Z,23.90
2018-11-27T22:47:52.821Z,20.70
2018-11-27T22:50:20.743Z,29.07
2018-11-27T22:52:48.605Z,25.93
2018-11-27T22:55:16.456Z,26.13
2018-11-27T22:57:44.333Z,24.97
2018-11-27T23:00:53.176Z,21.57
2018-11-27T23:03:21.216Z,24.90
2018-11-27T23:05:49.163Z,20.63
2018-11-27T23:08:17.001Z,17.83
2018-11-27T23:10:45.583Z,17.47
2018-11-27T23:13:13.597Z,15.00
2018-11-27T23:15:41.604Z,20.60
2018-11-27T23:18:09.486Z,17.07
2018-11-27T23:20:37.402Z,19.10
2018-11-27T23:23:05.317Z,20.83
2018-11-27T23:25:33.167Z,18.73
2018-11-27T23:28:01.349Z,19.60
2018-11-27T23:30:29.213Z,16.10
2018-11-27T23:32:57.224Z,16.93
2018-11-27T23:35:25.097Z,18.17
2018-11-27T23:37:53.534Z,20.33
2018-11-27T23:40:22.923Z,22.63
2018-11-27T23:42:50.887Z,21.43
2018-11-27T23:45:19.950Z,24.57
2018-11-27T23:47:47.793Z,24.97
2018-11-27T23:50:16.924Z,25.10
2018-11-27T23:52:45.206Z,27.10
2018-11-27T23:55:13.662Z,25.13
2018-11-27T23:57:42.009Z,20.13
